Time,TemperatureF,DewpointF,PressureIn,WindDirection,WindDirectionDegrees,WindSpeedMPH,WindSpeedGustMPH,Humidity,HourlyPrecipIn,Conditions,Clouds,dailyrainin,SoftwareType,DateUTC
2013-11-18 00:04:00,59.7,55.2,30.22,SE,135,6.9,6.9,85,0.00,,,0.00,meteobridge,2013-11-18 06:04:00,
2013-11-18 00:10:00,59.7,54.9,30.22,East,90,3.8,6.0,84,0.00,,,0.00,meteobridge,2013-11-18 06:10:00,
2013-11-18 00:16:00,59.4,54.9,30.22,SE,135,6.9,6.9,85,0.00,,,0.00,meteobridge,2013-11-18 06:16:00,
2013-11-18 00:23:00,59.5,54.7,30.22,SE,135,6.9,6.9,84,0.00,,,0.00,meteobridge,2013-11-18 06:23:00,
2013-11-18 00:29:00,59.2,54.3,30.22,SE,135,6.0,7.6,84,0.00,,,0.00,meteobridge,2013-11-18 06:29:00,
2013-11-18 00:35:00,59.2,54.0,30.22,SE,135,6.9,9.2,83,0.00,,,0.00,meteobridge,2013-11-18 06:35:00,
2013-11-18 00:42:00,59.0,54.1,30.22,SE,135,3.1,3.1,84,0.00,,,0.00,meteobridge,2013-11-18 06:42:00,
2013-11-18 00:48:00,59.2,54.7,30.21,SE,135,3.8,5.4,85,0.00,,,0.00,meteobridge,2013-11-18 06:48:00,
2013-11-18 00:55:00,59.7,55.2,30.21,South,180,3.8,3.8,85,0.00,,,0.00,meteobridge,2013-11-18 06:55:00,
2013-11-18 01:01:00,59.4,54.5,30.20,SE,135,3.8,5.4,84,0.00,,,0.00,meteobridge,2013-11-18 07:01:00,
2013-11-18 01:07:00,59.4,54.5,30.20,SE,135,2.2,3.1,84,0.00,,,0.00,meteobridge,2013-11-18 07:07:00,
2013-11-18 01:14:00,59.2,54.7,30.19,SE,135,5.4,5.4,85,0.00,,,0.00,meteobridge,2013-11-18 07:14:00,
2013-11-18 01:20:00,59.0,54.5,30.19,SE,135,3.8,4.5,85,0.00,,,0.00,meteobridge,2013-11-18 07:20:00,
2013-11-18 01:26:00,59.4,54.5,30.19,SE,135,6.0,6.0,84,0.00,,,0.00,meteobridge,2013-11-18 07:26:00,
2013-11-18 01:33:00,59.0,54.1,30.19,SE,135,2.2,3.8,84,0.00,,,0.00,meteobridge,2013-11-18 07:33:00,
2013-11-18 01:39:00,59.2,54.3,30.19,South,180,3.8,6.0,84,0.00,,,0.00,meteobridge,2013-11-18 07:39:00,
2013-11-18 01:45:00,59.0,53.8,30.19,SE,135,3.8,4.5,83,0.00,,,0.00,meteobridge,2013-11-18 07:45:00,
2013-11-18 01:52:00,58.8,54.0,30.19,SE,135,3.1,3.8,84,0.00,,,0.00,meteobridge,2013-11-18 07:52:00,
2013-11-18 01:58:00,58.5,54.0,30.18,SE,135,3.1,6.0,85,0.00,,,0.00,meteobridge,2013-11-18 07:58:00,
2013-11-18 02:04:00,58.5,54.0,30.18,SE,135,3.8,3.8,85,0.00,,,0.00,meteobridge,2013-11-18 08:04:00,
2013-11-18 02:11:00,59.2,55.0,30.18,SE,135,4.5,5.4,86,0.00,,,0.00,meteobridge,2013-11-18 08:11:00,
2013-11-18 02:17:00,58.6,54.9,30.18,SE,135,5.4,5.4,87,0.00,,,0.00,meteobridge,2013-11-18 08:17:00,
2013-11-18 02:25:00,59.0,54.9,30.18,SE,135,6.0,6.0,86,0.00,,,0.00,meteobridge,2013-11-18 08:25:00,
2013-11-18 02:32:00,59.0,54.5,30.18,NE,45,3.1,3.8,85,0.00,,,0.00,meteobridge,2013-11-18 08:32:00,
2013-11-18 02:38:00,59.0,54.9,30.18,South,180,1.6,3.1,86,0.00,,,0.00,meteobridge,2013-11-18 08:38:00,
2013-11-18 02:44:00,58.8,55.2,30.17,SE,135,3.8,4.5,88,0.00,,,0.00,meteobridge,2013-11-18 08:44:00,
2013-11-18 02:51:00,58.8,55.0,30.17,SE,135,3.8,5.4,87,0.00,,,0.00,meteobridge,2013-11-18 08:51:00,
2013-11-18 02:57:00,58.5,54.3,30.17,SE,135,5.4,6.0,86,0.00,,,0.00,meteobridge,2013-11-18 08:57:00,
2013-11-18 03:04:00,58.8,54.7,30.17,SE,135,4.5,7.6,86,0.00,,,0.00,meteobridge,2013-11-18 09:04:00,
2013-11-18 03:10:00,58.6,54.5,30.17,SE,135,6.0,6.0,86,0.00,,,0.00,meteobridge,2013-11-18 09:10:00,
2013-11-18 03:16:00,58.5,54.3,30.17,SE,135,3.8,5.4,86,0.00,,,0.00,meteobridge,2013-11-18 09:16:00,
2013-11-18 03:23:00,58.5,54.3,30.17,SE,135,3.1,3.1,86,0.00,,,0.00,meteobridge,2013-11-18 09:23:00,
2013-11-18 03:29:00,57.9,53.8,30.17,South,180,1.6,3.8,86,0.00,,,0.00,meteobridge,2013-11-18 09:29:00,
2013-11-18 03:35:00,57.9,53.8,30.17,SE,135,6.0,7.6,86,0.00,,,0.00,meteobridge,2013-11-18 09:35:00,
2013-11-18 03:42:00,58.5,54.7,30.17,South,180,4.5,4.5,87,0.00,,,0.00,meteobridge,2013-11-18 09:42:00,
2013-11-18 03:48:00,58.3,54.5,30.17,SE,135,4.5,4.5,87,0.00,,,0.00,meteobridge,2013-11-18 09:48:00,
2013-11-18 03:54:00,58.3,54.5,30.17,East,90,5.4,6.0,87,0.00,,,0.00,meteobridge,2013-11-18 09:54:00,
2013-11-18 04:01:00,57.9,54.1,30.18,SE,135,3.1,5.4,87,0.00,,,0.00,meteobridge,2013-11-18 10:01:00,
2013-11-18 04:07:00,57.0,53.8,30.18,SW,225,3.1,3.1,89,0.00,,,0.00,meteobridge,2013-11-18 10:07:00,
2013-11-18 04:13:00,57.7,54.5,30.18,East,90,2.2,5.4,89,0.00,,,0.00,meteobridge,2013-11-18 10:13:00,
2013-11-18 04:20:00,58.1,54.9,30.18,SE,135,6.0,6.0,89,0.00,,,0.00,meteobridge,2013-11-18 10:20:00,
2013-11-18 04:26:00,58.5,55.2,30.18,SE,135,4.5,6.0,89,0.00,,,0.00,meteobridge,2013-11-18 10:26:00,
2013-11-18 04:34:00,58.8,55.6,30.18,SE,135,3.8,3.8,89,0.00,,,0.00,meteobridge,2013-11-18 10:34:00,
2013-11-18 04:41:00,58.8,55.6,30.18,SE,135,8.3,8.3,89,0.00,,,0.00,meteobridge,2013-11-18 10:41:00,
2013-11-18 04:47:00,59.0,55.2,30.18,SW,225,3.8,6.0,87,0.00,,,0.00,meteobridge,2013-11-18 10:47:00,
2013-11-18 04:53:00,58.3,54.7,30.19,South,180,0.7,3.1,88,0.00,,,0.00,meteobridge,2013-11-18 10:53:00,
2013-11-18 05:00:00,58.8,55.2,30.19,SE,135,4.5,4.5,88,0.00,,,0.00,meteobridge,2013-11-18 11:00:00,
2013-11-18 05:06:00,59.0,55.2,30.19,South,180,9.2,9.2,87,0.00,,,0.00,meteobridge,2013-11-18 11:06:00,
2013-11-18 05:13:00,58.5,54.9,30.19,SE,135,2.2,3.1,88,0.00,,,0.00,meteobridge,2013-11-18 11:13:00,
2013-11-18 05:19:00,59.2,55.4,30.19,East,90,6.0,6.0,87,0.00,,,0.00,meteobridge,2013-11-18 11:19:00,
2013-11-18 05:25:00,59.2,55.4,30.19,South,180,3.8,3.8,87,0.00,,,0.00,meteobridge,2013-11-18 11:25:00,
2013-11-18 05:32:00,58.6,55.0,30.19,SE,135,3.1,3.1,88,0.00,,,0.00,meteobridge,2013-11-18 11:32:00,
2013-11-18 05:38:00,59.0,55.4,30.19,SE,135,3.8,3.8,88,0.00,,,0.00,meteobridge,2013-11-18 11:38:00,
2013-11-18 05:44:00,59.0,55.4,30.19,SE,135,4.5,6.0,88,0.00,,,0.00,meteobridge,2013-11-18 11:44:00,
2013-11-18 05:51:00,59.2,55.4,30.19,South,180,4.5,4.5,87,0.00,,,0.00,meteobridge,2013-11-18 11:51:00,
2013-11-18 05:57:00,59.0,54.9,30.19,South,180,7.6,7.6,86,0.00,,,0.00,meteobridge,2013-11-18 11:57:00,
2013-11-18 06:03:00,59.0,55.2,30.19,South,180,3.1,5.4,87,0.00,,,0.00,meteobridge,2013-11-18 12:03:00,
2013-11-18 06:10:00,59.7,55.8,30.19,SE,135,5.4,6.0,87,0.00,,,0.00,meteobridge,2013-11-18 12:10:00,
2013-11-18 06:16:00,59.9,55.8,30.19,South,180,3.1,3.1,86,0.00,,,0.00,meteobridge,2013-11-18 12:16:00,
2013-11-18 06:23:00,61.5,57.0,30.20,SE,135,4.5,6.0,85,0.00,,,0.00,meteobridge,2013-11-18 12:23:00,
2013-11-18 06:29:00,61.5,56.7,30.20,SW,225,2.2,2.2,84,0.00,,,0.00,meteobridge,2013-11-18 12:29:00,
2013-11-18 06:35:00,61.9,57.0,30.20,South,180,2.2,2.2,84,0.00,,,0.00,meteobridge,2013-11-18 12:35:00,
2013-11-18 06:42:00,61.9,57.0,30.20,South,180,0.0,3.1,84,0.00,,,0.00,meteobridge,2013-11-18 12:42:00,
2013-11-18 06:48:00,63.1,58.6,30.21,South,180,0.0,2.2,85,0.00,,,0.00,meteobridge,2013-11-18 12:48:00,
2013-11-18 06:54:00,63.9,59.2,30.20,South,180,0.0,0.0,85,0.00,,,0.00,meteobridge,2013-11-18 12:54:00,
2013-11-18 07:01:00,65.1,60.8,30.21,North,0,1.6,2.2,86,0.00,,,0.00,meteobridge,2013-11-18 13:01:00,
2013-11-18 07:07:00,64.6,59.9,30.22,North,0,0.0,0.0,85,0.00,,,0.00,meteobridge,2013-11-18 13:07:00,
2013-11-18 07:13:00,64.6,60.3,30.21,West,270,0.0,1.6,86,0.00,,,0.00,meteobridge,2013-11-18 13:13:00,
2013-11-18 07:20:00,65.3,61.0,30.22,SE,135,0.7,1.6,86,0.00,,,0.00,meteobridge,2013-11-18 13:20:00,
2013-11-18 07:26:00,64.9,60.6,30.22,SW,225,5.4,6.0,86,0.00,,,0.00,meteobridge,2013-11-18 13:26:00,
2013-11-18 07:32:00,65.5,61.2,30.22,SW,225,5.4,5.4,86,0.00,,,0.00,meteobridge,2013-11-18 13:32:00,
2013-11-18 07:39:00,67.1,62.1,30.22,West,270,3.1,3.8,84,0.00,,,0.00,meteobridge,2013-11-18 13:39:00,
2013-11-18 07:45:00,67.6,61.0,30.22,SW,225,0.0,3.8,79,0.00,,,0.00,meteobridge,2013-11-18 13:45:00,
2013-11-18 07:51:00,67.5,60.4,30.23,West,270,2.2,4.5,78,0.00,,,0.00,meteobridge,2013-11-18 13:51:00,
2013-11-18 07:58:00,68.2,61.0,30.23,SW,225,2.2,4.5,78,0.00,,,0.00,meteobridge,2013-11-18 13:58:00,
2013-11-18 08:04:00,65.1,59.9,30.23,SW,225,7.6,7.6,83,0.00,,,0.00,meteobridge,2013-11-18 14:04:00,
2013-11-18 08:10:00,64.9,60.3,30.23,SW,225,5.4,5.4,85,0.00,,,0.00,meteobridge,2013-11-18 14:10:00,
2013-11-18 08:17:00,65.5,61.2,30.23,East,90,3.1,3.1,86,0.00,,,0.00,meteobridge,2013-11-18 14:17:00,
2013-11-18 08:23:00,64.8,60.4,30.23,West,270,8.3,9.8,86,0.00,,,0.00,meteobridge,2013-11-18 14:23:00,
2013-11-18 08:29:00,64.9,61.0,30.24,South,180,5.4,6.0,87,0.00,,,0.00,meteobridge,2013-11-18 14:29:00,
2013-11-18 08:36:00,64.9,61.0,30.24,West,270,6.9,7.6,87,0.00,,,0.00,meteobridge,2013-11-18 14:36:00,
2013-11-18 08:42:00,66.7,62.4,30.24,East,90,4.5,4.5,86,0.00,,,0.00,meteobridge,2013-11-18 14:42:00,
2013-11-18 08:48:00,67.5,62.4,30.24,West,270,7.6,7.6,84,0.00,,,0.00,meteobridge,2013-11-18 14:48:00,
2013-11-18 08:55:00,66.7,60.8,30.24,SW,225,4.5,6.0,81,0.00,,,0.00,meteobridge,2013-11-18 14:55:00,
2013-11-18 09:01:00,66.6,60.6,30.24,South,180,6.9,8.3,81,0.00,,,0.00,meteobridge,2013-11-18 15:01:00,
2013-11-18 09:07:00,66.9,61.2,30.24,South,180,6.9,6.9,82,0.00,,,0.00,meteobridge,2013-11-18 15:07:00,
2013-11-18 09:16:00,66.7,61.0,30.24,South,180,6.0,6.9,82,0.00,,,0.00,meteobridge,2013-11-18 15:16:00,
2013-11-18 09:22:00,67.1,61.2,30.24,North,0,6.0,8.3,81,0.00,,,0.00,meteobridge,2013-11-18 15:22:00,
2013-11-18 09:29:00,67.5,60.8,30.24,South,180,9.8,9.8,79,0.00,,,0.00,meteobridge,2013-11-18 15:29:00,
2013-11-18 09:35:00,70.2,61.9,30.25,West,270,7.6,7.6,75,0.00,,,0.00,meteobridge,2013-11-18 15:35:00,
2013-11-18 09:41:00,69.3,61.3,30.25,West,270,6.0,6.0,76,0.00,,,0.00,meteobridge,2013-11-18 15:41:00,
2013-11-18 09:48:00,68.7,60.4,30.25,NW,315,5.4,5.4,75,0.00,,,0.00,meteobridge,2013-11-18 15:48:00,
2013-11-18 09:54:00,68.0,60.1,30.24,South,180,3.1,6.0,76,0.00,,,0.00,meteobridge,2013-11-18 15:54:00,
2013-11-18 10:00:00,67.1,59.7,30.24,West,270,6.9,10.7,77,0.00,,,0.00,meteobridge,2013-11-18 16:00:00,
2013-11-18 10:07:00,66.9,60.3,30.24,West,270,3.1,4.5,79,0.00,,,0.00,meteobridge,2013-11-18 16:07:00,
2013-11-18 10:13:00,66.6,60.3,30.24,South,180,3.8,6.9,80,0.00,,,0.00,meteobridge,2013-11-18 16:13:00,
2013-11-18 10:19:00,67.8,61.3,30.24,South,180,0.0,0.0,80,0.00,,,0.00,meteobridge,2013-11-18 16:19:00,
2013-11-18 10:26:00,68.7,61.2,30.24,West,270,2.2,2.2,77,0.00,,,0.00,meteobridge,2013-11-18 16:26:00,
2013-11-18 10:32:00,69.3,61.0,30.24,West,270,2.2,2.2,75,0.00,,,0.00,meteobridge,2013-11-18 16:32:00,
2013-11-18 10:38:00,69.3,60.6,30.24,West,270,3.1,3.1,74,0.00,,,0.00,meteobridge,2013-11-18 16:38:00,
2013-11-18 10:45:00,69.4,60.8,30.23,NW,315,6.9,6.9,74,0.00,,,0.00,meteobridge,2013-11-18 16:45:00,
2013-11-18 10:51:00,71.1,61.5,30.22,West,270,9.2,10.7,72,0.00,,,0.00,meteobridge,2013-11-18 16:51:00,
2013-11-18 10:57:00,72.0,61.2,30.22,West,270,6.0,8.3,69,0.00,,,0.00,meteobridge,2013-11-18 16:57:00,
2013-11-18 11:04:00,72.5,61.3,30.21,West,270,10.7,12.1,68,0.00,,,0.00,meteobridge,2013-11-18 17:04:00,
2013-11-18 11:10:00,71.2,60.1,30.22,NW,315,15.2,15.2,68,0.00,,,0.00,meteobridge,2013-11-18 17:10:00,
2013-11-18 11:16:00,70.5,60.3,30.22,West,270,11.4,11.4,70,0.00,,,0.00,meteobridge,2013-11-18 17:16:00,
2013-11-18 11:23:00,70.5,60.3,30.21,SW,225,6.0,12.1,70,0.00,,,0.00,meteobridge,2013-11-18 17:23:00,
2013-11-18 11:29:00,70.7,59.5,30.21,SW,225,12.1,12.1,68,0.00,,,0.00,meteobridge,2013-11-18 17:29:00,
2013-11-18 11:35:00,70.5,60.3,30.21,SW,225,6.0,7.6,70,0.00,,,0.00,meteobridge,2013-11-18 17:35:00,
2013-11-18 11:42:00,70.3,60.4,30.20,West,270,6.9,9.8,71,0.00,,,0.00,meteobridge,2013-11-18 17:42:00,
2013-11-18 11:48:00,69.8,59.9,30.21,NW,315,7.6,8.3,71,0.00,,,0.00,meteobridge,2013-11-18 17:48:00,
2013-11-18 11:55:00,69.3,60.6,30.20,NE,45,6.0,6.0,74,0.00,,,0.00,meteobridge,2013-11-18 17:55:00,
2013-11-18 12:01:00,69.1,60.8,30.20,North,0,5.4,7.6,75,0.00,,,0.00,meteobridge,2013-11-18 18:01:00,
2013-11-18 12:07:00,69.1,60.8,30.20,North,0,5.4,7.6,75,0.00,,,0.00,meteobridge,2013-11-18 18:07:00,
2013-11-18 12:14:00,69.1,60.8,30.20,NW,315,3.1,5.4,75,0.00,,,0.00,meteobridge,2013-11-18 18:14:00,
2013-11-18 12:20:00,70.3,61.3,30.20,North,0,4.5,4.5,73,0.00,,,0.00,meteobridge,2013-11-18 18:20:00,
2013-11-18 12:26:00,70.3,59.7,30.19,NW,315,3.1,5.4,69,0.00,,,0.00,meteobridge,2013-11-18 18:26:00,
2013-11-18 12:33:00,70.9,60.6,30.19,North,0,6.0,6.0,70,0.00,,,0.00,meteobridge,2013-11-18 18:33:00,
2013-11-18 12:39:00,71.2,60.1,30.18,North,0,6.0,6.9,68,0.00,,,0.00,meteobridge,2013-11-18 18:39:00,
2013-11-18 12:45:00,72.3,60.8,30.18,North,0,11.4,13.0,67,0.00,,,0.00,meteobridge,2013-11-18 18:45:00,
2013-11-18 12:52:00,75.0,61.2,30.17,SW,225,5.4,8.3,62,0.00,,,0.00,meteobridge,2013-11-18 18:52:00,
2013-11-18 12:58:00,73.0,59.2,30.17,North,0,6.9,8.3,62,0.00,,,0.00,meteobridge,2013-11-18 18:58:00,
2013-11-18 13:04:00,72.5,59.5,30.17,NE,45,7.6,7.6,64,0.00,,,0.00,meteobridge,2013-11-18 19:04:00,
2013-11-18 13:11:00,72.1,58.8,30.16,North,0,7.6,13.0,63,0.00,,,0.00,meteobridge,2013-11-18 19:11:00,
2013-11-18 13:17:00,70.7,60.4,30.16,North,0,10.7,10.7,70,0.00,,,0.00,meteobridge,2013-11-18 19:17:00,
2013-11-18 13:23:00,70.2,60.6,30.16,North,0,7.6,10.7,72,0.00,,,0.00,meteobridge,2013-11-18 19:23:00,
2013-11-18 13:30:00,70.2,61.2,30.16,NW,315,5.4,7.6,73,0.00,,,0.00,meteobridge,2013-11-18 19:30:00,
2013-11-18 13:36:00,70.3,61.3,30.16,North,0,6.9,6.9,73,0.00,,,0.00,meteobridge,2013-11-18 19:36:00,
2013-11-18 13:42:00,70.9,61.3,30.16,NE,45,6.0,6.0,72,0.00,,,0.00,meteobridge,2013-11-18 19:42:00,
2013-11-18 13:49:00,71.6,61.3,30.16,North,0,4.5,5.4,70,0.00,,,0.00,meteobridge,2013-11-18 19:49:00,
2013-11-18 13:55:00,70.7,61.2,30.16,East,90,7.6,7.6,72,0.00,,,0.00,meteobridge,2013-11-18 19:55:00,
2013-11-18 14:01:00,70.2,60.6,30.16,NE,45,4.5,6.9,72,0.00,,,0.00,meteobridge,2013-11-18 20:01:00,
2013-11-18 14:08:00,70.3,60.8,30.16,NE,45,7.6,7.6,72,0.00,,,0.00,meteobridge,2013-11-18 20:08:00,
2013-11-18 14:14:00,70.5,60.6,30.16,SE,135,8.3,9.2,71,0.00,,,0.00,meteobridge,2013-11-18 20:14:00,
2013-11-18 14:23:00,70.5,61.0,30.15,North,0,0.0,5.4,72,0.00,,,0.00,meteobridge,2013-11-18 20:23:00,
2013-11-18 14:29:00,70.3,60.8,30.15,SE,135,3.1,3.1,72,0.00,,,0.00,meteobridge,2013-11-18 20:29:00,
2013-11-18 14:35:00,70.2,60.6,30.15,SE,135,4.5,4.5,72,0.00,,,0.00,meteobridge,2013-11-18 20:35:00,
2013-11-18 14:42:00,70.0,60.6,30.15,SE,135,3.8,6.0,72,0.00,,,0.00,meteobridge,2013-11-18 20:42:00,
2013-11-18 14:48:00,70.0,60.6,30.15,East,90,0.7,4.5,72,0.00,,,0.00,meteobridge,2013-11-18 20:48:00,
2013-11-18 14:54:00,69.8,60.8,30.15,North,0,0.0,3.8,73,0.00,,,0.00,meteobridge,2013-11-18 20:54:00,
2013-11-18 15:01:00,69.8,60.4,30.15,SE,135,5.4,5.4,72,0.00,,,0.00,meteobridge,2013-11-18 21:01:00,
2013-11-18 15:07:00,69.1,60.4,30.15,East,90,1.6,6.0,74,0.00,,,0.00,meteobridge,2013-11-18 21:07:00,
2013-11-18 15:13:00,68.9,60.6,30.15,NE,45,3.1,3.1,75,0.00,,,0.00,meteobridge,2013-11-18 21:13:00,
2013-11-18 15:20:00,68.7,60.4,30.15,East,90,1.6,3.8,75,0.00,,,0.00,meteobridge,2013-11-18 21:20:00,
2013-11-18 15:26:00,69.1,60.8,30.15,South,180,4.5,6.9,75,0.00,,,0.00,meteobridge,2013-11-18 21:26:00,
2013-11-18 16:06:00,68.4,60.4,30.16,NW,315,5.4,5.4,76,0.00,,,0.00,meteobridge,2013-11-18 22:06:00,
2013-11-18 16:13:00,68.0,60.1,30.16,West,270,4.5,5.4,76,0.00,,,0.00,meteobridge,2013-11-18 22:13:00,
2013-11-18 16:19:00,67.5,60.4,30.16,NW,315,0.7,3.1,78,0.00,,,0.00,meteobridge,2013-11-18 22:19:00,
2013-11-18 16:27:00,66.9,60.6,30.16,West,270,3.8,4.5,80,0.00,,,0.00,meteobridge,2013-11-18 22:27:00,
2013-11-18 16:34:00,66.6,61.0,30.16,South,180,3.8,6.0,82,0.00,,,0.00,meteobridge,2013-11-18 22:34:00,
2013-11-18 16:40:00,66.6,61.2,30.16,West,270,3.1,3.1,83,0.00,,,0.00,meteobridge,2013-11-18 22:40:00,
2013-11-18 16:48:00,65.8,61.2,30.16,South,180,3.8,6.0,85,0.00,,,0.00,meteobridge,2013-11-18 22:48:00,
2013-11-18 16:55:00,65.8,61.2,30.16,SW,225,0.0,3.1,85,0.00,,,0.00,meteobridge,2013-11-18 22:55:00,
2013-11-18 17:01:00,65.3,60.6,30.17,West,270,3.8,6.0,85,0.00,,,0.00,meteobridge,2013-11-18 23:01:00,
2013-11-18 17:07:00,65.3,61.0,30.17,West,270,5.4,5.4,86,0.00,,,0.00,meteobridge,2013-11-18 23:07:00,
2013-11-18 17:14:00,64.9,60.6,30.17,SW,225,3.8,6.9,86,0.00,,,0.00,meteobridge,2013-11-18 23:14:00,
2013-11-18 17:20:00,64.9,60.6,30.17,South,180,5.4,5.4,86,0.00,,,0.00,meteobridge,2013-11-18 23:20:00,
2013-11-18 17:27:00,64.9,61.0,30.17,NW,315,0.0,0.7,87,0.00,,,0.00,meteobridge,2013-11-18 23:27:00,
2013-11-18 17:33:00,64.9,61.0,30.17,West,270,0.0,0.0,87,0.00,,,0.00,meteobridge,2013-11-18 23:33:00,
2013-11-18 17:39:00,64.9,60.6,30.18,SW,225,6.0,6.0,86,0.00,,,0.00,meteobridge,2013-11-18 23:39:00,
2013-11-18 17:46:00,64.8,60.4,30.18,West,270,0.0,2.2,86,0.00,,,0.00,meteobridge,2013-11-18 23:46:00,
2013-11-18 17:52:00,64.6,60.3,30.19,West,270,3.1,4.5,86,0.00,,,0.00,meteobridge,2013-11-18 23:52:00,
2013-11-18 17:58:00,64.6,60.6,30.19,West,270,2.2,2.2,87,0.00,,,0.00,meteobridge,2013-11-18 23:58:00,
2013-11-18 18:05:00,63.9,59.2,30.19,West,270,0.0,4.5,85,0.00,,,0.00,meteobridge,2013-11-19 00:05:00,
2013-11-18 18:11:00,64.0,59.4,30.19,North,0,0.0,0.0,85,0.00,,,0.00,meteobridge,2013-11-19 00:11:00,
2013-11-18 18:19:00,63.7,59.4,30.19,East,90,0.0,0.0,86,0.00,,,0.00,meteobridge,2013-11-19 00:19:00,
2013-11-18 18:26:00,63.3,59.4,30.19,South,180,0.0,2.2,87,0.00,,,0.00,meteobridge,2013-11-19 00:26:00,
2013-11-18 18:32:00,63.3,59.7,30.20,NE,45,2.2,2.2,88,0.00,,,0.00,meteobridge,2013-11-19 00:32:00,
2013-11-18 18:38:00,63.3,60.1,30.21,SE,135,0.0,0.0,89,0.00,,,0.00,meteobridge,2013-11-19 00:38:00,
2013-11-18 18:45:00,63.5,60.3,30.20,NW,315,0.0,0.0,89,0.00,,,0.00,meteobridge,2013-11-19 00:45:00,
2013-11-18 18:51:00,63.7,60.4,30.21,West,270,0.0,0.0,89,0.00,,,0.00,meteobridge,2013-11-19 00:51:00,
2013-11-18 18:57:00,63.3,60.1,30.21,West,270,2.2,6.0,89,0.00,,,0.00,meteobridge,2013-11-19 00:57:00,
2013-11-18 19:04:00,63.3,59.7,30.22,South,180,3.8,4.5,88,0.00,,,0.00,meteobridge,2013-11-19 01:04:00,
2013-11-18 19:10:00,63.1,59.2,30.22,SW,225,3.8,3.8,87,0.00,,,0.00,meteobridge,2013-11-19 01:10:00,
2013-11-18 19:16:00,63.1,59.2,30.22,West,270,0.0,0.0,87,0.00,,,0.00,meteobridge,2013-11-19 01:16:00,
2013-11-18 19:23:00,63.0,59.0,30.22,South,180,0.0,0.0,87,0.00,,,0.00,meteobridge,2013-11-19 01:23:00,
2013-11-18 19:29:00,62.8,58.8,30.22,SW,225,3.1,3.8,87,0.00,,,0.00,meteobridge,2013-11-19 01:29:00,
2013-11-18 19:36:00,62.8,59.2,30.23,SW,225,0.0,0.0,88,0.00,,,0.00,meteobridge,2013-11-19 01:36:00,
2013-11-18 19:42:00,63.0,59.4,30.23,SW,225,0.0,0.0,88,0.00,,,0.00,meteobridge,2013-11-19 01:42:00,
2013-11-18 19:48:00,63.0,59.0,30.23,South,180,0.0,0.0,87,0.00,,,0.00,meteobridge,2013-11-19 01:48:00,
2013-11-18 19:50:00,63.0,59.0,30.23,South,180,0.0,0.0,87,0.00,,,0.00,meteobridge,2013-11-19 01:50:00,
2013-11-18 19:57:00,63.1,59.2,30.23,South,180,0.0,0.0,87,0.00,,,0.00,meteobridge,2013-11-19 01:57:00,
2013-11-18 20:03:00,63.3,59.7,30.23,South,180,0.0,0.0,88,0.00,,,0.00,meteobridge,2013-11-19 02:03:00,
2013-11-18 20:09:00,63.1,59.5,30.23,North,0,0.0,0.0,88,0.00,,,0.00,meteobridge,2013-11-19 02:09:00,
2013-11-18 20:16:00,62.6,59.0,30.24,NW,315,0.0,0.0,88,0.00,,,0.00,meteobridge,2013-11-19 02:16:00,
2013-11-18 20:22:00,62.6,59.0,30.24,West,270,0.0,0.0,88,0.00,,,0.00,meteobridge,2013-11-19 02:22:00,
2013-11-18 20:28:00,62.8,59.2,30.23,West,270,0.0,0.0,88,0.00,,,0.00,meteobridge,2013-11-19 02:28:00,
2013-11-18 20:35:00,62.6,58.6,30.23,West,270,3.1,3.1,87,0.00,,,0.00,meteobridge,2013-11-19 02:35:00,
2013-11-18 20:41:00,62.4,58.8,30.24,South,180,0.0,0.0,88,0.00,,,0.00,meteobridge,2013-11-19 02:41:00,
2013-11-18 20:47:00,62.2,58.6,30.24,West,270,0.0,0.0,88,0.00,,,0.00,meteobridge,2013-11-19 02:47:00,
2013-11-18 20:54:00,62.2,58.6,30.24,SE,135,0.0,0.0,88,0.00,,,0.00,meteobridge,2013-11-19 02:54:00,
2013-11-18 21:02:00,62.2,59.0,30.24,South,180,0.0,0.0,89,0.00,,,0.00,meteobridge,2013-11-19 03:02:00,
2013-11-18 21:09:00,62.1,58.8,30.24,North,0,0.0,0.0,89,0.00,,,0.00,meteobridge,2013-11-19 03:09:00,
2013-11-18 21:15:00,61.7,58.5,30.24,NW,315,0.0,0.0,89,0.00,,,0.00,meteobridge,2013-11-19 03:15:00,
2013-11-18 21:23:00,61.7,58.8,30.24,South,180,0.0,0.0,90,0.00,,,0.00,meteobridge,2013-11-19 03:23:00,
2013-11-18 21:30:00,61.7,58.8,30.24,SW,225,0.0,0.0,90,0.00,,,0.00,meteobridge,2013-11-19 03:30:00,
2013-11-18 21:36:00,61.7,58.8,30.24,West,270,3.1,4.5,90,0.00,,,0.00,meteobridge,2013-11-19 03:36:00,
2013-11-18 21:42:00,61.7,58.5,30.24,South,180,1.6,2.2,89,0.00,,,0.00,meteobridge,2013-11-19 03:42:00,
2013-11-18 21:49:00,61.5,58.3,30.24,SE,135,1.6,3.1,89,0.00,,,0.00,meteobridge,2013-11-19 03:49:00,
2013-11-18 21:55:00,61.3,58.1,30.25,SE,135,4.5,4.5,89,0.00,,,0.00,meteobridge,2013-11-19 03:55:00,
2013-11-18 22:01:00,61.3,58.1,30.24,SE,135,2.2,2.2,89,0.00,,,0.00,meteobridge,2013-11-19 04:01:00,
2013-11-18 22:08:00,61.2,57.9,30.24,South,180,3.1,3.1,89,0.00,,,0.00,meteobridge,2013-11-19 04:08:00,
2013-11-18 22:10:00,61.0,58.1,30.24,SW,225,3.1,3.1,90,0.00,,,0.00,meteobridge,2013-11-19 04:10:00,
2013-11-18 22:16:00,61.0,58.1,30.24,SE,135,3.1,3.8,90,0.00,,,0.00,meteobridge,2013-11-19 04:16:00,
2013-11-18 22:23:00,61.0,58.1,30.23,SE,135,4.5,4.5,90,0.00,,,0.00,meteobridge,2013-11-19 04:23:00,
2013-11-18 22:29:00,60.6,57.7,30.23,SE,135,2.2,2.2,90,0.00,,,0.00,meteobridge,2013-11-19 04:29:00,
2013-11-18 22:35:00,60.8,57.6,30.23,South,180,3.1,4.5,89,0.00,,,0.00,meteobridge,2013-11-19 04:35:00,
2013-11-18 22:44:00,60.4,57.6,30.23,South,180,3.1,3.1,90,0.00,,,0.00,meteobridge,2013-11-19 04:44:00,
2013-11-18 22:50:00,60.6,57.4,30.22,West,270,1.6,1.6,89,0.00,,,0.00,meteobridge,2013-11-19 04:50:00,
2013-11-18 22:56:00,60.3,57.0,30.23,South,180,3.1,3.1,89,0.00,,,0.00,meteobridge,2013-11-19 04:56:00,
2013-11-18 23:01:00,60.3,56.7,30.22,SE,135,1.6,1.6,88,0.00,,,0.00,meteobridge,2013-11-19 05:01:00,
2013-11-18 23:03:00,60.1,56.5,30.23,South,180,2.2,3.8,88,0.00,,,0.00,meteobridge,2013-11-19 05:03:00,
2013-11-18 23:07:00,60.1,56.1,30.22,South,180,5.4,5.4,87,0.00,,,0.00,meteobridge,2013-11-19 05:07:00,
2013-11-18 23:09:00,60.1,56.1,30.22,SE,135,4.5,4.5,87,0.00,,,0.00,meteobridge,2013-11-19 05:09:00,
2013-11-18 23:11:00,60.4,56.5,30.23,SE,135,3.1,4.5,87,0.00,,,0.00,meteobridge,2013-11-19 05:11:00,
2013-11-18 23:18:00,60.1,56.1,30.23,South,180,0.0,0.0,87,0.00,,,0.00,meteobridge,2013-11-19 05:18:00,
2013-11-18 23:24:00,60.1,56.1,30.23,SE,135,3.8,4.5,87,0.00,,,0.00,meteobridge,2013-11-19 05:24:00,
2013-11-18 23:30:00,59.9,55.9,30.23,South,180,0.0,3.1,87,0.00,,,0.00,meteobridge,2013-11-19 05:30:00,
2013-11-18 23:37:00,59.9,56.3,30.22,SE,135,3.8,3.8,88,0.00,,,0.00,meteobridge,2013-11-19 05:37:00,
2013-11-18 23:43:00,59.7,55.8,30.22,SE,135,6.0,8.3,87,0.00,,,0.00,meteobridge,2013-11-19 05:43:00,
2013-11-18 23:49:00,59.9,55.9,30.21,East,90,9.2,9.2,87,0.00,,,0.00,meteobridge,2013-11-19 05:49:00,
2013-11-18 23:56:00,60.1,55.9,30.21,SE,135,4.5,6.0,86,0.00,,,0.00,meteobridge,2013-11-19 05:56:00,